KLUF/LUF METAR and TAF weather

Enter ICAO airport designator
Station Type Date Time Source
KLUF METAR 2020/01/27 16:58 UTC NOAA

KLUF 271658Z 21002KT 10SM CLR 13/09 A3010 RMK SLPNO WND DATA ESTMD ALTSG ESTMD $


Station Type Date Time Source
KLUF Decoded METAR 2020/01/27 16:58 UTC NOAA

Luke Air Force Base / Phoenix, AZ, United States (KLUF) 33-32N 112-23W 332M
Jan 27, 2020 - 11:58 AM EST / 2020.01.27 1658 UTC
Wind: from the SSW (210 degrees) at 2 MPH (2 KT):0
Visibility: 10 mile(s):0
Sky conditions: clear
Temperature: 55 F (13 C)
Dew Point: 48 F (9 C)
Relative Humidity: 76%
Pressure (altimeter): 30.1 in. Hg (1019 hPa)
ob: KLUF 271658Z 21002KT 10SM CLR 13/09 A3010 RMK SLPNO WND DATA ESTMD ALTSG ESTMD
cycle: 17

Station Type Date Time Source
KLUF TAF 2020/01/27 12:12 UTC NOAA

TAF TAF KLUF 271206Z 2712/2818 34006KT 9999 SCT150 QNH3002INS
BECMG 2715/2716 VRB06KT 9999 SKC QNH3009INS TX22/2724Z TN06/2814Z

Example: see airport list